sensor_id;sensor_type;location;lat;lon;timestamp;temperature;humidity
67141;DHT22;54058;52.010;5.546;2024-01-25T00:00:21;8.60;99.90
67141;DHT22;54058;52.010;5.546;2024-01-25T00:02:46;8.60;99.70
67141;DHT22;54058;52.010;5.546;2024-01-25T00:05:12;8.60;99.70
67141;DHT22;54058;52.010;5.546;2024-01-25T00:07:48;8.50;99.60
67141;DHT22;54058;52.010;5.546;2024-01-25T00:10:15;8.50;99.60
67141;DHT22;54058;52.010;5.546;2024-01-25T00:12:41;8.50;99.70
67141;DHT22;54058;52.010;5.546;2024-01-25T00:15:11;8.40;99.70
67141;DHT22;54058;52.010;5.546;2024-01-25T00:17:37;8.40;99.60
67141;DHT22;54058;52.010;5.546;2024-01-25T00:20:04;8.40;99.60
67141;DHT22;54058;52.010;5.546;2024-01-25T00:22:31;8.40;99.60
67141;DHT22;54058;52.010;5.546;2024-01-25T00:24:58;8.30;99.60
67141;DHT22;54058;52.010;5.546;2024-01-25T00:27:23;8.30;99.50
67141;DHT22;54058;52.010;5.546;2024-01-25T00:29:49;8.30;99.50
67141;DHT22;54058;52.010;5.546;2024-01-25T00:32:15;8.30;99.50
67141;DHT22;54058;52.010;5.546;2024-01-25T00:34:41;8.30;99.50
67141;DHT22;54058;52.010;5.546;2024-01-25T00:37:07;8.20;99.40
67141;DHT22;54058;52.010;5.546;2024-01-25T00:39:33;8.20;99.40
67141;DHT22;54058;52.010;5.546;2024-01-25T00:42:04;8.20;99.30
67141;DHT22;54058;52.010;5.546;2024-01-25T00:44:31;8.20;99.40
67141;DHT22;54058;52.010;5.546;2024-01-25T00:46:57;8.20;99.30
67141;DHT22;54058;52.010;5.546;2024-01-25T00:49:23;8.10;99.40
67141;DHT22;54058;52.010;5.546;2024-01-25T00:51:50;8.10;99.40
67141;DHT22;54058;52.010;5.546;2024-01-25T00:54:16;8.10;99.50
67141;DHT22;54058;52.010;5.546;2024-01-25T00:56:42;8.10;99.40
67141;DHT22;54058;52.010;5.546;2024-01-25T00:59:08;8.10;99.50
67141;DHT22;54058;52.010;5.546;2024-01-25T01:01:34;8.00;99.50
67141;DHT22;54058;52.010;5.546;2024-01-25T01:04:00;8.00;99.50
67141;DHT22;54058;52.010;5.546;2024-01-25T01:06:26;8.00;99.50
67141;DHT22;54058;52.010;5.546;2024-01-25T01:08:52;8.00;99.50
67141;DHT22;54058;52.010;5.546;2024-01-25T01:11:18;7.90;99.50
67141;DHT22;54058;52.010;5.546;2024-01-25T01:13:44;7.90;99.60
67141;DHT22;54058;52.010;5.546;2024-01-25T01:16:09;7.90;99.60
67141;DHT22;54058;52.010;5.546;2024-01-25T01:18:35;7.90;99.60
67141;DHT22;54058;52.010;5.546;2024-01-25T01:21:01;7.90;99.60
67141;DHT22;54058;52.010;5.546;2024-01-25T01:23:26;7.90;99.70
67141;DHT22;54058;52.010;5.546;2024-01-25T01:25:52;7.80;99.70
67141;DHT22;54058;52.010;5.546;2024-01-25T01:28:18;7.80;99.70
67141;DHT22;54058;52.010;5.546;2024-01-25T01:30:43;7.80;99.90
67141;DHT22;54058;52.010;5.546;2024-01-25T01:33:10;7.80;99.70
67141;DHT22;54058;52.010;5.546;2024-01-25T01:35:36;7.70;99.90
67141;DHT22;54058;52.010;5.546;2024-01-25T01:38:02;7.70;99.80
67141;DHT22;54058;52.010;5.546;2024-01-25T01:40:28;7.70;99.80
67141;DHT22;54058;52.010;5.546;2024-01-25T01:43:00;7.70;99.90
67141;DHT22;54058;52.010;5.546;2024-01-25T01:45:26;7.60;99.90
67141;DHT22;54058;52.010;5.546;2024-01-25T01:47:52;7.60;99.90
67141;DHT22;54058;52.010;5.546;2024-01-25T01:50:18;7.60;99.90
67141;DHT22;54058;52.010;5.546;2024-01-25T01:52:45;7.60;99.90
67141;DHT22;54058;52.010;5.546;2024-01-25T01:55:11;7.60;99.90
67141;DHT22;54058;52.010;5.546;2024-01-25T01:57:37;7.60;99.90
67141;DHT22;54058;52.010;5.546;2024-01-25T02:00:06;7.60;99.90
67141;DHT22;54058;52.010;5.546;2024-01-25T02:02:33;7.60;99.90
67141;DHT22;54058;52.010;5.546;2024-01-25T02:04:59;7.60;99.90
67141;DHT22;54058;52.010;5.546;2024-01-25T02:07:25;7.50;99.90
67141;DHT22;54058;52.010;5.546;2024-01-25T02:09:51;7.50;99.90
67141;DHT22;54058;52.010;5.546;2024-01-25T02:12:17;7.50;99.90
67141;DHT22;54058;52.010;5.546;2024-01-25T02:14:42;7.50;99.90
67141;DHT22;54058;52.010;5.546;2024-01-25T02:17:08;7.50;99.90
67141;DHT22;54058;52.010;5.546;2024-01-25T02:19:34;7.50;99.90
67141;DHT22;54058;52.010;5.546;2024-01-25T02:21:59;7.50;99.90
67141;DHT22;54058;52.010;5.546;2024-01-25T02:24:26;7.50;99.90
67141;DHT22;54058;52.010;5.546;2024-01-25T02:26:52;7.50;99.90
67141;DHT22;54058;52.010;5.546;2024-01-25T02:29:17;7.50;99.90
67141;DHT22;54058;52.010;5.546;2024-01-25T02:31:43;7.40;99.90
67141;DHT22;54058;52.010;5.546;2024-01-25T02:34:09;7.40;99.90
67141;DHT22;54058;52.010;5.546;2024-01-25T02:36:34;7.40;99.90
67141;DHT22;54058;52.010;5.546;2024-01-25T02:39:00;7.30;99.90
67141;DHT22;54058;52.010;5.546;2024-01-25T02:41:29;7.30;99.90
67141;DHT22;54058;52.010;5.546;2024-01-25T02:43:55;7.20;99.90
67141;DHT22;54058;52.010;5.546;2024-01-25T02:46:20;7.20;99.90
67141;DHT22;54058;52.010;5.546;2024-01-25T02:48:46;7.20;99.90
67141;DHT22;54058;52.010;5.546;2024-01-25T02:51:12;7.10;99.90
67141;DHT22;54058;52.010;5.546;2024-01-25T02:53:37;7.10;99.90
67141;DHT22;54058;52.010;5.546;2024-01-25T02:56:03;7.10;99.90
67141;DHT22;54058;52.010;5.546;2024-01-25T02:58:29;7.10;99.90
67141;DHT22;54058;52.010;5.546;2024-01-25T03:00:54;7.10;99.90
67141;DHT22;54058;52.010;5.546;2024-01-25T03:03:20;7.10;99.90
67141;DHT22;54058;52.010;5.546;2024-01-25T03:05:46;7.00;99.90
67141;DHT22;54058;52.010;5.546;2024-01-25T03:08:11;7.00;99.90
67141;DHT22;54058;52.010;5.546;2024-01-25T03:10:37;7.00;99.90
67141;DHT22;54058;52.010;5.546;2024-01-25T03:13:03;7.00;99.90
67141;DHT22;54058;52.010;5.546;2024-01-25T03:15:28;7.00;99.90
67141;DHT22;54058;52.010;5.546;2024-01-25T03:17:54;7.00;99.90
67141;DHT22;54058;52.010;5.546;2024-01-25T03:20:19;7.00;99.90
67141;DHT22;54058;52.010;5.546;2024-01-25T03:22:45;6.90;99.90
67141;DHT22;54058;52.010;5.546;2024-01-25T03:25:10;6.90;99.90
67141;DHT22;54058;52.010;5.546;2024-01-25T03:27:36;6.90;99.90
67141;DHT22;54058;52.010;5.546;2024-01-25T03:30:02;6.80;99.90
67141;DHT22;54058;52.010;5.546;2024-01-25T03:32:28;6.80;99.90
67141;DHT22;54058;52.010;5.546;2024-01-25T03:34:53;6.80;99.90
67141;DHT22;54058;52.010;5.546;2024-01-25T03:37:19;6.80;99.90
67141;DHT22;54058;52.010;5.546;2024-01-25T03:39:45;6.80;99.90
67141;DHT22;54058;52.010;5.546;2024-01-25T03:42:10;6.80;99.90
67141;DHT22;54058;52.010;5.546;2024-01-25T03:44:36;6.90;99.90
67141;DHT22;54058;52.010;5.546;2024-01-25T03:47:02;6.90;99.90
67141;DHT22;54058;52.010;5.546;2024-01-25T03:49:27;6.90;99.90
67141;DHT22;54058;52.010;5.546;2024-01-25T03:51:53;6.90;99.90
67141;DHT22;54058;52.010;5.546;2024-01-25T03:54:18;6.80;99.90
67141;DHT22;54058;52.010;5.546;2024-01-25T03:56:44;6.90;99.90
67141;DHT22;54058;52.010;5.546;2024-01-25T03:59:10;6.90;99.90
67141;DHT22;54058;52.010;5.546;2024-01-25T04:01:44;6.90;99.90
67141;DHT22;54058;52.010;5.546;2024-01-25T04:04:10;6.90;99.90
67141;DHT22;54058;52.010;5.546;2024-01-25T04:06:43;6.90;99.90
67141;DHT22;54058;52.010;5.546;2024-01-25T04:09:09;6.90;99.90
67141;DHT22;54058;52.010;5.546;2024-01-25T04:11:36;6.90;99.90
67141;DHT22;54058;52.010;5.546;2024-01-25T04:14:02;6.90;99.90
67141;DHT22;54058;52.010;5.546;2024-01-25T04:16:28;6.90;99.90
67141;DHT22;54058;52.010;5.546;2024-01-25T04:18:53;6.90;99.90
67141;DHT22;54058;52.010;5.546;2024-01-25T04:21:19;6.80;99.90
67141;DHT22;54058;52.010;5.546;2024-01-25T04:23:45;6.80;99.90
67141;DHT22;54058;52.010;5.546;2024-01-25T04:26:11;6.80;99.90
67141;DHT22;54058;52.010;5.546;2024-01-25T04:28:36;6.70;99.90
67141;DHT22;54058;52.010;5.546;2024-01-25T04:31:02;6.70;99.90
67141;DHT22;54058;52.010;5.546;2024-01-25T04:33:31;6.70;99.90
67141;DHT22;54058;52.010;5.546;2024-01-25T04:35:56;6.70;99.90
67141;DHT22;54058;52.010;5.546;2024-01-25T04:38:22;6.70;99.90
67141;DHT22;54058;52.010;5.546;2024-01-25T04:40:48;6.70;99.90
67141;DHT22;54058;52.010;5.546;2024-01-25T04:43:13;6.70;99.90
67141;DHT22;54058;52.010;5.546;2024-01-25T04:45:39;6.70;99.90
67141;DHT22;54058;52.010;5.546;2024-01-25T04:48:06;6.70;99.90
67141;DHT22;54058;52.010;5.546;2024-01-25T04:50:32;6.70;99.90
67141;DHT22;54058;52.010;5.546;2024-01-25T04:52:57;6.60;99.90
67141;DHT22;54058;52.010;5.546;2024-01-25T04:55:23;6.60;99.90
67141;DHT22;54058;52.010;5.546;2024-01-25T04:57:49;6.50;99.90
67141;DHT22;54058;52.010;5.546;2024-01-25T05:00:21;6.50;99.90
67141;DHT22;54058;52.010;5.546;2024-01-25T05:02:47;6.40;99.90
67141;DHT22;54058;52.010;5.546;2024-01-25T05:05:13;6.40;99.90
67141;DHT22;54058;52.010;5.546;2024-01-25T05:07:39;6.40;99.90
67141;DHT22;54058;52.010;5.546;2024-01-25T05:10:05;6.40;99.90
67141;DHT22;54058;52.010;5.546;2024-01-25T05:12:31;6.40;99.90
67141;DHT22;54058;52.010;5.546;2024-01-25T05:14:57;6.40;99.90
67141;DHT22;54058;52.010;5.546;2024-01-25T05:17:23;6.40;99.90
67141;DHT22;54058;52.010;5.546;2024-01-25T05:19:49;6.40;99.90
67141;DHT22;54058;52.010;5.546;2024-01-25T05:22:14;6.40;99.90
67141;DHT22;54058;52.010;5.546;2024-01-25T05:24:40;6.40;99.90
67141;DHT22;54058;52.010;5.546;2024-01-25T05:27:06;6.40;99.90
67141;DHT22;54058;52.010;5.546;2024-01-25T05:29:31;6.40;99.90
67141;DHT22;54058;52.010;5.546;2024-01-25T05:31:57;6.40;99.90
67141;DHT22;54058;52.010;5.546;2024-01-25T05:34:23;6.30;99.90
67141;DHT22;54058;52.010;5.546;2024-01-25T05:36:48;6.40;99.90
67141;DHT22;54058;52.010;5.546;2024-01-25T05:39:14;6.40;99.90
67141;DHT22;54058;52.010;5.546;2024-01-25T05:41:40;6.40;99.90
67141;DHT22;54058;52.010;5.546;2024-01-25T05:44:06;6.30;99.90
67141;DHT22;54058;52.010;5.546;2024-01-25T05:46:31;6.40;99.90
67141;DHT22;54058;52.010;5.546;2024-01-25T05:48:57;6.40;99.90
67141;DHT22;54058;52.010;5.546;2024-01-25T05:51:22;6.40;99.90
67141;DHT22;54058;52.010;5.546;2024-01-25T05:53:48;6.30;99.90
67141;DHT22;54058;52.010;5.546;2024-01-25T05:56:14;6.30;99.90
67141;DHT22;54058;52.010;5.546;2024-01-25T05:58:39;6.30;99.90
67141;DHT22;54058;52.010;5.546;2024-01-25T06:01:06;6.30;99.90
67141;DHT22;54058;52.010;5.546;2024-01-25T06:03:31;6.40;99.90
67141;DHT22;54058;52.010;5.546;2024-01-25T06:05:57;6.30;99.90
67141;DHT22;54058;52.010;5.546;2024-01-25T06:08:23;6.20;99.90
67141;DHT22;54058;52.010;5.546;2024-01-25T06:10:48;6.20;99.90
67141;DHT22;54058;52.010;5.546;2024-01-25T06:13:15;6.20;99.90
67141;DHT22;54058;52.010;5.546;2024-01-25T06:15:41;6.20;99.90
67141;DHT22;54058;52.010;5.546;2024-01-25T06:18:07;6.20;99.90
67141;DHT22;54058;52.010;5.546;2024-01-25T06:20:32;6.20;99.90
67141;DHT22;54058;52.010;5.546;2024-01-25T06:22:58;6.20;99.90
67141;DHT22;54058;52.010;5.546;2024-01-25T06:25:24;6.20;99.90
67141;DHT22;54058;52.010;5.546;2024-01-25T06:27:52;6.20;99.90
67141;DHT22;54058;52.010;5.546;2024-01-25T06:30:17;6.20;99.90
67141;DHT22;54058;52.010;5.546;2024-01-25T06:32:45;6.20;99.90
67141;DHT22;54058;52.010;5.546;2024-01-25T06:35:11;6.20;99.90
67141;DHT22;54058;52.010;5.546;2024-01-25T06:37:37;6.20;99.90
67141;DHT22;54058;52.010;5.546;2024-01-25T06:40:03;6.20;99.90
67141;DHT22;54058;52.010;5.546;2024-01-25T06:42:30;6.10;99.90
67141;DHT22;54058;52.010;5.546;2024-01-25T06:44:55;6.10;99.90
67141;DHT22;54058;52.010;5.546;2024-01-25T06:47:21;6.10;99.90
67141;DHT22;54058;52.010;5.546;2024-01-25T06:49:46;6.20;99.90
67141;DHT22;54058;52.010;5.546;2024-01-25T06:52:18;6.20;99.90
67141;DHT22;54058;52.010;5.546;2024-01-25T06:54:44;6.20;99.90
67141;DHT22;54058;52.010;5.546;2024-01-25T06:57:10;6.20;99.90
67141;DHT22;54058;52.010;5.546;2024-01-25T06:59:36;6.20;99.90
67141;DHT22;54058;52.010;5.546;2024-01-25T07:02:01;6.20;99.90
67141;DHT22;54058;52.010;5.546;2024-01-25T07:04:30;6.20;99.90
67141;DHT22;54058;52.010;5.546;2024-01-25T07:06:56;6.20;99.90
67141;DHT22;54058;52.010;5.546;2024-01-25T07:09:21;6.20;99.90
67141;DHT22;54058;52.010;5.546;2024-01-25T07:11:47;6.20;99.90
67141;DHT22;54058;52.010;5.546;2024-01-25T07:14:12;6.20;99.90
67141;DHT22;54058;52.010;5.546;2024-01-25T07:16:38;6.20;99.90
67141;DHT22;54058;52.010;5.546;2024-01-25T07:19:04;6.30;99.90
67141;DHT22;54058;52.010;5.546;2024-01-25T07:21:30;6.30;99.90
67141;DHT22;54058;52.010;5.546;2024-01-25T07:24:02;6.40;99.90
67141;DHT22;54058;52.010;5.546;2024-01-25T07:26:28;6.40;99.90
67141;DHT22;54058;52.010;5.546;2024-01-25T07:28:55;6.40;99.90
67141;DHT22;54058;52.010;5.546;2024-01-25T07:31:27;6.40;99.90
67141;DHT22;54058;52.010;5.546;2024-01-25T07:33:53;6.40;99.90
67141;DHT22;54058;52.010;5.546;2024-01-25T07:36:20;6.40;99.90
67141;DHT22;54058;52.010;5.546;2024-01-25T07:38:46;6.50;99.90
67141;DHT22;54058;52.010;5.546;2024-01-25T07:41:17;6.50;99.90
67141;DHT22;54058;52.010;5.546;2024-01-25T07:43:43;6.50;99.90
67141;DHT22;54058;52.010;5.546;2024-01-25T07:46:09;6.60;99.90
67141;DHT22;54058;52.010;5.546;2024-01-25T07:48:36;6.60;99.90
67141;DHT22;54058;52.010;5.546;2024-01-25T07:51:02;6.60;99.90
67141;DHT22;54058;52.010;5.546;2024-01-25T07:53:28;6.60;99.90
67141;DHT22;54058;52.010;5.546;2024-01-25T07:55:54;6.60;99.90
67141;DHT22;54058;52.010;5.546;2024-01-25T07:58:19;6.60;99.90
67141;DHT22;54058;52.010;5.546;2024-01-25T08:00:45;6.70;99.90
67141;DHT22;54058;52.010;5.546;2024-01-25T08:03:11;6.70;99.90
67141;DHT22;54058;52.010;5.546;2024-01-25T08:05:37;6.70;99.90
67141;DHT22;54058;52.010;5.546;2024-01-25T08:08:03;6.80;99.90
67141;DHT22;54058;52.010;5.546;2024-01-25T08:10:29;6.80;99.90
67141;DHT22;54058;52.010;5.546;2024-01-25T08:12:54;6.80;99.90
67141;DHT22;54058;52.010;5.546;2024-01-25T08:15:20;6.80;99.90
67141;DHT22;54058;52.010;5.546;2024-01-25T08:17:46;6.80;99.90
67141;DHT22;54058;52.010;5.546;2024-01-25T08:20:12;6.80;99.90
67141;DHT22;54058;52.010;5.546;2024-01-25T08:22:41;6.90;99.90
67141;DHT22;54058;52.010;5.546;2024-01-25T08:25:07;6.90;99.90
67141;DHT22;54058;52.010;5.546;2024-01-25T08:27:33;6.90;99.90
67141;DHT22;54058;52.010;5.546;2024-01-25T08:29:59;6.90;99.90
67141;DHT22;54058;52.010;5.546;2024-01-25T08:32:24;7.00;99.90
67141;DHT22;54058;52.010;5.546;2024-01-25T08:34:50;7.00;99.90
67141;DHT22;54058;52.010;5.546;2024-01-25T08:37:15;7.10;99.90
67141;DHT22;54058;52.010;5.546;2024-01-25T08:39:41;7.00;99.90
67141;DHT22;54058;52.010;5.546;2024-01-25T08:42:08;7.00;99.90
67141;DHT22;54058;52.010;5.546;2024-01-25T08:44:34;7.00;99.90
67141;DHT22;54058;52.010;5.546;2024-01-25T08:46:59;7.00;99.90
67141;DHT22;54058;52.010;5.546;2024-01-25T08:49:25;7.00;99.90
67141;DHT22;54058;52.010;5.546;2024-01-25T08:51:51;7.10;99.90
67141;DHT22;54058;52.010;5.546;2024-01-25T08:54:17;7.10;99.90
67141;DHT22;54058;52.010;5.546;2024-01-25T08:56:42;7.00;99.90
67141;DHT22;54058;52.010;5.546;2024-01-25T08:59:08;7.10;99.90
67141;DHT22;54058;52.010;5.546;2024-01-25T09:01:33;7.20;99.90
67141;DHT22;54058;52.010;5.546;2024-01-25T09:03:59;7.30;99.90
67141;DHT22;54058;52.010;5.546;2024-01-25T09:06:29;7.20;99.90
67141;DHT22;54058;52.010;5.546;2024-01-25T09:08:55;7.30;99.90
67141;DHT22;54058;52.010;5.546;2024-01-25T09:11:21;7.40;99.90
67141;DHT22;54058;52.010;5.546;2024-01-25T09:13:47;7.50;99.90
67141;DHT22;54058;52.010;5.546;2024-01-25T09:16:14;7.60;99.90
67141;DHT22;54058;52.010;5.546;2024-01-25T09:18:39;7.70;99.90
67141;DHT22;54058;52.010;5.546;2024-01-25T09:21:05;7.70;99.90
67141;DHT22;54058;52.010;5.546;2024-01-25T09:23:31;7.70;99.90
67141;DHT22;54058;52.010;5.546;2024-01-25T09:25:57;7.70;99.90
67141;DHT22;54058;52.010;5.546;2024-01-25T09:28:22;7.70;99.90
67141;DHT22;54058;52.010;5.546;2024-01-25T09:30:48;7.70;99.90
67141;DHT22;54058;52.010;5.546;2024-01-25T09:33:14;7.80;99.90
67141;DHT22;54058;52.010;5.546;2024-01-25T09:35:40;7.80;99.90
67141;DHT22;54058;52.010;5.546;2024-01-25T09:38:06;7.90;99.90
67141;DHT22;54058;52.010;5.546;2024-01-25T09:40:32;7.90;99.90
67141;DHT22;54058;52.010;5.546;2024-01-25T09:42:59;7.90;99.90
67141;DHT22;54058;52.010;5.546;2024-01-25T09:45:24;7.90;99.90
67141;DHT22;54058;52.010;5.546;2024-01-25T09:47:51;7.90;99.90
67141;DHT22;54058;52.010;5.546;2024-01-25T09:50:16;7.90;99.90
67141;DHT22;54058;52.010;5.546;2024-01-25T09:52:44;7.90;99.90
67141;DHT22;54058;52.010;5.546;2024-01-25T09:55:12;7.90;99.90
67141;DHT22;54058;52.010;5.546;2024-01-25T09:57:39;8.00;99.90
67141;DHT22;54058;52.010;5.546;2024-01-25T10:00:07;8.10;99.90
67141;DHT22;54058;52.010;5.546;2024-01-25T10:02:37;8.20;99.90
67141;DHT22;54058;52.010;5.546;2024-01-25T10:05:03;8.30;99.90
67141;DHT22;54058;52.010;5.546;2024-01-25T10:07:38;8.50;99.90
67141;DHT22;54058;52.010;5.546;2024-01-25T10:10:05;8.60;99.90
67141;DHT22;54058;52.010;5.546;2024-01-25T10:12:31;8.70;99.90
67141;DHT22;54058;52.010;5.546;2024-01-25T10:14:58;8.80;99.90
67141;DHT22;54058;52.010;5.546;2024-01-25T10:17:24;8.90;99.90
67141;DHT22;54058;52.010;5.546;2024-01-25T10:19:50;9.00;99.90
67141;DHT22;54058;52.010;5.546;2024-01-25T10:22:15;9.00;99.90
67141;DHT22;54058;52.010;5.546;2024-01-25T10:24:41;9.00;99.90
67141;DHT22;54058;52.010;5.546;2024-01-25T10:27:07;9.00;99.90
67141;DHT22;54058;52.010;5.546;2024-01-25T10:29:36;9.10;99.90
67141;DHT22;54058;52.010;5.546;2024-01-25T10:32:06;9.20;99.90
67141;DHT22;54058;52.010;5.546;2024-01-25T10:34:35;9.30;99.90
67141;DHT22;54058;52.010;5.546;2024-01-25T10:37:06;9.40;99.90
67141;DHT22;54058;52.010;5.546;2024-01-25T10:39:32;9.40;99.90
67141;DHT22;54058;52.010;5.546;2024-01-25T10:41:59;9.50;99.90
67141;DHT22;54058;52.010;5.546;2024-01-25T10:44:25;9.50;99.90
67141;DHT22;54058;52.010;5.546;2024-01-25T10:46:50;9.50;99.90
67141;DHT22;54058;52.010;5.546;2024-01-25T10:49:17;9.50;99.90
67141;DHT22;54058;52.010;5.546;2024-01-25T10:51:44;9.50;99.90
67141;DHT22;54058;52.010;5.546;2024-01-25T10:54:12;9.50;99.90
67141;DHT22;54058;52.010;5.546;2024-01-25T10:56:42;9.50;99.90
67141;DHT22;54058;52.010;5.546;2024-01-25T10:59:10;9.50;99.90
67141;DHT22;54058;52.010;5.546;2024-01-25T11:01:36;9.50;99.90
67141;DHT22;54058;52.010;5.546;2024-01-25T11:04:02;9.60;99.90
67141;DHT22;54058;52.010;5.546;2024-01-25T11:06:28;9.60;99.90
67141;DHT22;54058;52.010;5.546;2024-01-25T11:09:07;9.60;99.90
67141;DHT22;54058;52.010;5.546;2024-01-25T11:11:32;9.60;99.90
67141;DHT22;54058;52.010;5.546;2024-01-25T11:13:59;9.60;99.90
67141;DHT22;54058;52.010;5.546;2024-01-25T11:16:32;9.50;99.90
67141;DHT22;54058;52.010;5.546;2024-01-25T11:19:00;9.40;99.90
67141;DHT22;54058;52.010;5.546;2024-01-25T11:21:45;9.50;99.90
67141;DHT22;54058;52.010;5.546;2024-01-25T11:24:20;9.60;99.90
67141;DHT22;54058;52.010;5.546;2024-01-25T11:26:48;9.60;99.90
67141;DHT22;54058;52.010;5.546;2024-01-25T11:29:18;9.70;99.90
67141;DHT22;54058;52.010;5.546;2024-01-25T11:31:44;9.60;99.90
67141;DHT22;54058;52.010;5.546;2024-01-25T11:34:11;9.60;99.90
67141;DHT22;54058;52.010;5.546;2024-01-25T11:36:37;9.70;99.90
67141;DHT22;54058;52.010;5.546;2024-01-25T11:39:03;9.70;99.90
67141;DHT22;54058;52.010;5.546;2024-01-25T11:41:30;9.80;99.90
67141;DHT22;54058;52.010;5.546;2024-01-25T11:43:56;9.80;99.90
67141;DHT22;54058;52.010;5.546;2024-01-25T11:46:22;9.70;99.90
67141;DHT22;54058;52.010;5.546;2024-01-25T11:48:48;9.80;99.90
67141;DHT22;54058;52.010;5.546;2024-01-25T11:51:14;9.80;99.90
67141;DHT22;54058;52.010;5.546;2024-01-25T11:53:40;9.80;99.90
67141;DHT22;54058;52.010;5.546;2024-01-25T11:56:12;9.90;99.90
67141;DHT22;54058;52.010;5.546;2024-01-25T11:58:39;9.90;99.90
67141;DHT22;54058;52.010;5.546;2024-01-25T12:01:05;9.90;99.90
67141;DHT22;54058;52.010;5.546;2024-01-25T12:03:36;9.90;99.90
67141;DHT22;54058;52.010;5.546;2024-01-25T12:06:03;9.90;99.90
67141;DHT22;54058;52.010;5.546;2024-01-25T12:08:31;9.90;99.90
67141;DHT22;54058;52.010;5.546;2024-01-25T12:11:04;9.90;99.90
67141;DHT22;54058;52.010;5.546;2024-01-25T12:13:32;9.90;99.90
67141;DHT22;54058;52.010;5.546;2024-01-25T12:15:59;10.00;99.90
67141;DHT22;54058;52.010;5.546;2024-01-25T12:18:26;10.00;99.90
67141;DHT22;54058;52.010;5.546;2024-01-25T12:20:51;10.00;99.90
67141;DHT22;54058;52.010;5.546;2024-01-25T12:23:17;10.00;99.90
67141;DHT22;54058;52.010;5.546;2024-01-25T12:25:43;9.90;99.90
67141;DHT22;54058;52.010;5.546;2024-01-25T12:28:09;10.00;99.90
67141;DHT22;54058;52.010;5.546;2024-01-25T12:30:35;10.00;99.90
67141;DHT22;54058;52.010;5.546;2024-01-25T12:33:01;10.00;99.90
67141;DHT22;54058;52.010;5.546;2024-01-25T12:35:26;10.10;99.90
67141;DHT22;54058;52.010;5.546;2024-01-25T12:37:52;10.00;99.90
67141;DHT22;54058;52.010;5.546;2024-01-25T12:40:17;10.00;99.90
67141;DHT22;54058;52.010;5.546;2024-01-25T12:42:43;10.00;99.90
67141;DHT22;54058;52.010;5.546;2024-01-25T12:45:09;10.00;99.90
67141;DHT22;54058;52.010;5.546;2024-01-25T12:47:34;10.00;99.90
67141;DHT22;54058;52.010;5.546;2024-01-25T12:50:00;10.10;99.90
67141;DHT22;54058;52.010;5.546;2024-01-25T12:52:25;10.10;99.90
67141;DHT22;54058;52.010;5.546;2024-01-25T12:54:51;10.10;99.90
67141;DHT22;54058;52.010;5.546;2024-01-25T12:57:17;10.10;99.90
67141;DHT22;54058;52.010;5.546;2024-01-25T12:59:42;10.10;99.90
67141;DHT22;54058;52.010;5.546;2024-01-25T13:02:08;10.20;99.90
67141;DHT22;54058;52.010;5.546;2024-01-25T13:04:34;10.20;99.90
67141;DHT22;54058;52.010;5.546;2024-01-25T13:06:59;10.20;99.90
67141;DHT22;54058;52.010;5.546;2024-01-25T13:09:25;10.20;99.90
67141;DHT22;54058;52.010;5.546;2024-01-25T13:11:51;10.20;99.90
67141;DHT22;54058;52.010;5.546;2024-01-25T13:14:18;10.20;99.90
67141;DHT22;54058;52.010;5.546;2024-01-25T13:16:43;10.20;99.90
67141;DHT22;54058;52.010;5.546;2024-01-25T13:19:09;10.10;99.90
67141;DHT22;54058;52.010;5.546;2024-01-25T13:21:37;10.10;99.90
67141;DHT22;54058;52.010;5.546;2024-01-25T13:24:02;10.10;99.90
67141;DHT22;54058;52.010;5.546;2024-01-25T13:26:28;10.10;99.90
67141;DHT22;54058;52.010;5.546;2024-01-25T13:28:53;10.10;99.90
67141;DHT22;54058;52.010;5.546;2024-01-25T13:31:19;10.10;99.90
67141;DHT22;54058;52.010;5.546;2024-01-25T13:33:45;10.20;99.90
67141;DHT22;54058;52.010;5.546;2024-01-25T13:36:12;10.20;99.90
67141;DHT22;54058;52.010;5.546;2024-01-25T13:38:40;10.10;99.90
67141;DHT22;54058;52.010;5.546;2024-01-25T13:41:06;10.10;99.90
67141;DHT22;54058;52.010;5.546;2024-01-25T13:43:31;10.10;99.90
67141;DHT22;54058;52.010;5.546;2024-01-25T13:45:57;10.10;99.90
67141;DHT22;54058;52.010;5.546;2024-01-25T13:48:23;10.10;99.90
67141;DHT22;54058;52.010;5.546;2024-01-25T13:50:48;10.10;99.90
67141;DHT22;54058;52.010;5.546;2024-01-25T13:53:14;10.00;99.90
67141;DHT22;54058;52.010;5.546;2024-01-25T13:55:39;10.00;99.90
67141;DHT22;54058;52.010;5.546;2024-01-25T13:58:05;10.00;99.90
67141;DHT22;54058;52.010;5.546;2024-01-25T14:00:31;10.00;99.90
67141;DHT22;54058;52.010;5.546;2024-01-25T14:02:57;10.00;99.90
67141;DHT22;54058;52.010;5.546;2024-01-25T14:05:22;10.00;99.90
67141;DHT22;54058;52.010;5.546;2024-01-25T14:07:48;10.00;99.90
67141;DHT22;54058;52.010;5.546;2024-01-25T14:10:14;10.00;99.90
67141;DHT22;54058;52.010;5.546;2024-01-25T14:12:40;10.00;99.90
67141;DHT22;54058;52.010;5.546;2024-01-25T14:15:06;10.00;99.90
67141;DHT22;54058;52.010;5.546;2024-01-25T14:17:31;10.00;99.90
67141;DHT22;54058;52.010;5.546;2024-01-25T14:19:57;10.00;99.90
67141;DHT22;54058;52.010;5.546;2024-01-25T14:22:23;10.00;99.90
67141;DHT22;54058;52.010;5.546;2024-01-25T14:24:48;10.00;99.90
67141;DHT22;54058;52.010;5.546;2024-01-25T14:27:14;10.00;99.90
67141;DHT22;54058;52.010;5.546;2024-01-25T14:29:39;10.00;99.90
67141;DHT22;54058;52.010;5.546;2024-01-25T14:32:05;10.00;99.90
67141;DHT22;54058;52.010;5.546;2024-01-25T14:34:31;10.00;99.90
67141;DHT22;54058;52.010;5.546;2024-01-25T14:36:57;10.10;99.90
67141;DHT22;54058;52.010;5.546;2024-01-25T14:39:22;10.00;99.90
67141;DHT22;54058;52.010;5.546;2024-01-25T14:41:48;10.00;99.90
67141;DHT22;54058;52.010;5.546;2024-01-25T14:44:14;10.00;99.90
67141;DHT22;54058;52.010;5.546;2024-01-25T14:46:39;10.00;99.90
67141;DHT22;54058;52.010;5.546;2024-01-25T14:49:06;10.00;99.90
67141;DHT22;54058;52.010;5.546;2024-01-25T14:51:31;10.00;99.90
67141;DHT22;54058;52.010;5.546;2024-01-25T14:53:57;10.00;99.90
67141;DHT22;54058;52.010;5.546;2024-01-25T14:56:23;10.00;99.90
67141;DHT22;54058;52.010;5.546;2024-01-25T14:58:48;9.90;99.90
67141;DHT22;54058;52.010;5.546;2024-01-25T15:01:15;9.90;99.90
67141;DHT22;54058;52.010;5.546;2024-01-25T15:03:45;9.90;99.90
67141;DHT22;54058;52.010;5.546;2024-01-25T15:06:12;9.90;99.90
67141;DHT22;54058;52.010;5.546;2024-01-25T15:08:37;9.90;99.90
67141;DHT22;54058;52.010;5.546;2024-01-25T15:11:03;9.90;99.90
67141;DHT22;54058;52.010;5.546;2024-01-25T15:13:29;9.90;99.90
67141;DHT22;54058;52.010;5.546;2024-01-25T15:15:55;9.90;99.90
67141;DHT22;54058;52.010;5.546;2024-01-25T15:18:20;9.80;99.90
67141;DHT22;54058;52.010;5.546;2024-01-25T15:20:47;9.80;99.90
67141;DHT22;54058;52.010;5.546;2024-01-25T15:23:13;9.80;99.90
67141;DHT22;54058;52.010;5.546;2024-01-25T15:25:39;9.70;99.90
67141;DHT22;54058;52.010;5.546;2024-01-25T15:28:05;9.60;99.90
67141;DHT22;54058;52.010;5.546;2024-01-25T15:30:31;9.60;99.90
67141;DHT22;54058;52.010;5.546;2024-01-25T15:32:56;9.60;99.90
67141;DHT22;54058;52.010;5.546;2024-01-25T15:35:23;9.60;99.90